Change the Weather History Date:

Friday, November 8, 2013

  Actual Average Record
Temperature  
Mean Temperature 51 °F -  
Max Temperature 70 °F 57 °F 70 °F (2013)
Min Temperature 32 °F 28 °F 32 °F (2013)
Degree Days  
Heating Degree Days 14    
Growing Degree Days 1 (Base 50)    
Moisture  
Dew Point 26 °F    
Average Humidity 50    
Maximum Humidity 83    
Minimum Humidity 13    
Precipitation  
Precipitation 0.00 in - - ()
Sea Level Pressure  
Sea Level Pressure 29.88 in    
Wind  
Wind Speed 7 mph (West)    
Max Wind Speed 18 mph    
Max Gust Speed 26 mph    
Visibility 10 miles    
Events Snow    
Averages and records for this station are not official NWS values.
T = Trace of Precipitation, MM = Missing Value Source: NWS Daily Summary

Daily Weather History Graph

Daily Weather History Graph

Search for Another Location

Airport or City:

Trip Planner

Search our weather history database for the weather conditions in past years. The results will help you decide how hot, cold, wet, or windy it might be!

Date:

Astronomy

Nov. 08, 2013 Rise Set
Actual Time 7:24 AM CST 5:37 PM CST
Civil Twilight 6:55 AM CST 6:05 PM CST
Nautical Twilight 6:23 AM CST 6:37 PM CST
Astronomical Twilight 5:51 AM CST 7:09 PM CST
Moon 12:21 PM CST (11/8) 11:00 PM CST (11/8)
Length of Visible Light 11h 10m
Length of Day
10h 13m
Waxing Crescent, 33% of the Moon is Illuminated
Nov 8
Waxing Crescent
Nov 9
First Quarter
Nov 17
Full
Nov 25
Last Quarter
Dec 2
New

Hourly Weather History & Observations

Time (CST) Temp. Windchill Dew Point Humidity Pressure Visibility Wind Dir Wind Speed Gust Speed Precip Events Conditions
12:15 AM 40.1 °F 36.1 °F 27.9 °F 62% 30.05 in 10.0 mi South 5.8 mph - N/A   Clear
12:35 AM 39.2 °F 34.2 °F 27.9 °F 64% 30.03 in 10.0 mi South 6.9 mph - N/A   Clear
12:55 AM 39.2 °F 35.9 °F 28.0 °F 64% 30.02 in 10.0 mi South 4.6 mph - N/A   Unknown
1:15 AM 38.7 °F 35.2 °F 27.5 °F 64% 30.01 in 10.0 mi SW 4.6 mph - N/A   Clear
1:35 AM 37.2 °F 31.9 °F 27.5 °F 68% 30.00 in 10.0 mi SSW 6.9 mph - N/A Snow Light Snow
1:55 AM 35.2 °F 31.2 °F 27.3 °F 73% 29.99 in 10.0 mi SSW 4.6 mph - N/A   Clear
2:15 AM 34.2 °F 30.0 °F 27.1 °F 75% 29.99 in 10.0 mi SSW 4.6 mph - N/A Snow Light Snow
2:35 AM 32.9 °F 28.5 °F 26.8 °F 78% 29.98 in 10.0 mi SSW 4.6 mph - N/A Snow Light Snow
2:55 AM 32.5 °F 27.1 °F 27.5 °F 82% 29.96 in 10.0 mi South 5.8 mph - N/A Snow Light Snow
3:15 AM 33.4 °F 25.9 °F 27.7 °F 79% 29.94 in 10.0 mi South 9.2 mph - N/A   Clear
3:35 AM 33.8 °F 25.3 °F 28.0 °F 79% 29.92 in 10.0 mi South 11.5 mph - N/A   Clear
3:55 AM 33.3 °F 24.6 °F 27.9 °F 81% 29.91 in 10.0 mi South 11.5 mph - N/A   Clear
4:15 AM 33.6 °F 26.8 °F 27.9 °F 79% 29.90 in 10.0 mi SSW 8.1 mph - N/A   Clear
4:35 AM 33.4 °F 27.3 °F 27.5 °F 79% 29.89 in 10.0 mi SSW 6.9 mph - N/A   Clear
4:55 AM 33.3 °F 27.9 °F 27.3 °F 79% 29.87 in 10.0 mi SW 5.8 mph - N/A   Clear
5:15 AM 33.8 °F 29.6 °F 27.0 °F 76% 29.87 in 10.0 mi WSW 4.6 mph - N/A   Clear
5:35 AM 32.0 °F 25.6 °F 27.3 °F 83% 29.87 in 10.0 mi WSW 6.9 mph - N/A   Clear
5:55 AM 32.0 °F 25.6 °F 27.3 °F 83% 29.86 in 10.0 mi SW 6.9 mph - N/A   Clear
6:15 AM 33.1 °F 26.1 °F 27.9 °F 81% 29.85 in 10.0 mi SW 8.1 mph - N/A   Clear
6:35 AM 33.1 °F 26.9 °F 27.5 °F 80% 29.84 in 10.0 mi SW 6.9 mph - N/A   Clear
6:55 AM 33.6 °F 26.8 °F 27.5 °F 78% 29.83 in 10.0 mi WSW 8.1 mph - N/A   Clear
7:15 AM 34.5 °F 27.9 °F 27.9 °F 77% 29.83 in 10.0 mi SW 8.1 mph - N/A   Clear
7:35 AM 36.7 °F 28.9 °F 27.7 °F 70% 29.82 in 10.0 mi SW 11.5 mph - N/A   Clear
7:55 AM 37.8 °F 31.8 °F 28.0 °F 68% 29.81 in 10.0 mi SW 8.1 mph - N/A   Clear
8:15 AM 38.8 °F 33.2 °F 28.6 °F 67% 29.81 in 10.0 mi SW 8.1 mph - N/A   Clear
8:35 AM 38.7 °F 32.9 °F 29.3 °F 69% 29.81 in 10.0 mi WSW 8.1 mph - N/A   Clear
8:55 AM 40.8 °F 34.5 °F 30.2 °F 66% 29.81 in 10.0 mi SW 10.4 mph - N/A   Clear
9:15 AM 44.6 °F 39.7 °F 30.2 °F 57% 29.79 in 10.0 mi SW 9.2 mph - N/A   Clear
9:35 AM 52.9 °F - 28.6 °F 39% 29.79 in 10.0 mi WSW 12.7 mph - N/A   Clear
9:55 AM 55.2 °F - 28.2 °F 36% 29.79 in 10.0 mi WSW 12.7 mph - N/A   Clear
10:15 AM 59.0 °F - 25.9 °F 28% 29.79 in 10.0 mi West 15.0 mph - N/A   Clear
10:35 AM 61.9 °F - 23.9 °F 23% 29.80 in 10.0 mi West 13.8 mph 17.3 mph N/A   Clear
10:55 AM 65.3 °F - 23.9 °F 21% 29.82 in 10.0 mi NNW 8.1 mph - N/A   Clear
11:15 AM 65.5 °F - 25.7 °F 22% 29.83 in 10.0 mi NNW 18.4 mph - N/A   Clear
11:35 AM 62.8 °F - 25.7 °F 24% 29.83 in 10.0 mi NW 9.2 mph - N/A   Clear
11:55 AM 65.5 °F - 22.1 °F 19% 29.83 in 10.0 mi NW 10.4 mph 16.1 mph N/A   Clear
12:15 PM 65.3 °F - 20.8 °F 18% 29.82 in 10.0 mi NW 11.5 mph 16.1 mph N/A   Clear
12:35 PM 67.5 °F - 21.4 °F 17% 29.81 in 10.0 mi NW 11.5 mph - N/A   Clear
12:55 PM 69.6 °F - 22.3 °F 17% 29.80 in 10.0 mi NNW 16.1 mph 26.5 mph N/A   Clear
1:15 PM 68.9 °F - 16.0 °F 13% 29.79 in 10.0 mi NNW 16.1 mph 24.2 mph N/A   Clear
1:35 PM 68.7 °F - 17.2 °F 14% 29.79 in 10.0 mi NNW 13.8 mph 23.0 mph N/A   Clear
1:55 PM 69.3 °F - 17.1 °F 14% 29.80 in 10.0 mi NNW 13.8 mph - N/A   Clear
2:15 PM 67.6 °F - 17.6 °F 15% 29.80 in 10.0 mi NNW 9.2 mph - N/A   Clear
2:35 PM 68.0 °F - 19.2 °F 16% 29.80 in 10.0 mi North 9.2 mph - N/A   Clear
2:55 PM 69.3 °F - 18.9 °F 15% 29.79 in 10.0 mi NNW 16.1 mph - N/A   Clear
3:15 PM 69.4 °F - 18.0 °F 14% 29.79 in 10.0 mi NNW 12.7 mph - N/A   Clear
3:35 PM 70.0 °F - 18.7 °F 14% 29.79 in 10.0 mi NNW 10.4 mph - N/A   Clear
3:55 PM 69.6 °F - 16.7 °F 13% 29.80 in 10.0 mi NNW 13.8 mph 20.7 mph N/A   Clear
4:15 PM 68.4 °F - 18.1 °F 15% 29.81 in 10.0 mi NNW 10.4 mph - N/A   Clear
4:35 PM 65.8 °F - 19.0 °F 17% 29.81 in 10.0 mi NNW 10.4 mph - N/A   Clear
4:55 PM 64.4 °F - 20.8 °F 19% 29.81 in 10.0 mi NW 8.1 mph - N/A   Clear
5:15 PM 60.8 °F - 21.9 °F 22% 29.83 in 10.0 mi NNW 4.6 mph - N/A   Clear
5:35 PM 61.9 °F - 21.0 °F 21% 29.84 in 10.0 mi NW 4.6 mph - N/A   Clear
5:55 PM 59.9 °F - 22.5 °F 24% 29.85 in 10.0 mi West 3.5 mph - N/A   Clear
6:15 PM 57.9 °F - 22.8 °F 26% 29.85 in 10.0 mi WNW 3.5 mph - N/A   Clear
6:35 PM 49.1 °F - 27.7 °F 44% 29.88 in 10.0 mi ENE 3.5 mph - N/A   Clear
6:55 PM 50.7 °F - 27.3 °F 40% 29.90 in 10.0 mi ENE 3.5 mph - N/A   Clear
7:15 PM 48.4 °F - 27.5 °F 44% 29.91 in 10.0 mi East 6.9 mph - N/A   Clear
7:35 PM 46.6 °F - 28.8 °F 50% 29.92 in 10.0 mi East 6.9 mph - N/A   Clear
7:55 PM 45.1 °F 42.0 °F 29.7 °F 55% 29.93 in 10.0 mi East 5.8 mph - N/A   Clear
8:15 PM 44.8 °F 42.4 °F 29.7 °F 55% 29.93 in 10.0 mi ENE 4.6 mph - N/A   Clear
8:35 PM 45.5 °F 41.3 °F 30.2 °F 55% 29.94 in 10.0 mi ENE 8.1 mph - N/A   Clear
8:55 PM 44.2 °F - 30.4 °F 58% 29.95 in 10.0 mi Calm Calm - N/A   Clear
9:15 PM 44.1 °F - 30.7 °F 59% 29.96 in 10.0 mi Calm Calm - N/A   Clear
9:35 PM 45.5 °F 44.2 °F 30.6 °F 56% 29.97 in 10.0 mi East 3.5 mph - N/A   Clear
9:55 PM 42.6 °F 40.9 °F 30.9 °F 63% 29.98 in 10.0 mi NNE 3.5 mph - N/A   Clear
10:15 PM 41.4 °F - 30.4 °F 65% 29.98 in 10.0 mi Calm Calm - N/A   Clear
10:35 PM 39.4 °F - 29.7 °F 68% 29.99 in 10.0 mi Calm Calm - N/A   Clear
10:55 PM 41.9 °F - 30.2 °F 63% 29.99 in 10.0 mi Calm Calm - N/A   Clear
11:15 PM 40.6 °F - 30.2 °F 66% 29.99 in 10.0 mi Calm Calm - N/A   Clear
11:35 PM 38.8 °F 36.5 °F 30.0 °F 71% 29.99 in 10.0 mi WNW 3.5 mph - N/A   Clear
11:55 PM 39.4 °F 37.2 °F 30.6 °F 71% 30.00 in 10.0 mi NW 3.5 mph - N/A   Clear